sensor_id;sensor_type;location;lat;lon;timestamp;pressure;altitude;pressure_sealevel;temperature;humidity
73101;BME280;61288;53.446;-2.266;2023-02-01T00:02:08;101897.94;;;5.67;80.12
73101;BME280;61288;53.446;-2.266;2023-02-01T00:04:33;101901.38;;;5.60;81.09
73101;BME280;61288;53.446;-2.266;2023-02-01T00:06:59;101907.38;;;5.56;80.70
73101;BME280;61288;53.446;-2.266;2023-02-01T00:09:25;101903.94;;;5.57;80.35
73101;BME280;61288;53.446;-2.266;2023-02-01T00:11:51;101894.50;;;5.60;80.08
73101;BME280;61288;53.446;-2.266;2023-02-01T00:14:16;101909.09;;;5.57;80.12
73101;BME280;61288;53.446;-2.266;2023-02-01T00:16:42;101905.66;;;5.55;79.71
73101;BME280;61288;53.446;-2.266;2023-02-01T00:19:11;101908.22;;;5.58;78.79
73101;BME280;61288;53.446;-2.266;2023-02-01T00:21:37;101917.66;;;5.62;78.34
73101;BME280;61288;53.446;-2.266;2023-02-01T00:24:03;101911.66;;;5.66;78.14
73101;BME280;61288;53.446;-2.266;2023-02-01T00:26:34;101910.78;;;5.67;78.98
73101;BME280;61288;53.446;-2.266;2023-02-01T00:29:06;101906.50;;;5.77;78.24
73101;BME280;61288;53.446;-2.266;2023-02-01T00:31:32;101907.34;;;5.76;78.63
73101;BME280;61288;53.446;-2.266;2023-02-01T00:33:58;101901.34;;;5.75;79.63
73101;BME280;61288;53.446;-2.266;2023-02-01T00:36:24;101897.94;;;5.72;80.08
73101;BME280;61288;53.446;-2.266;2023-02-01T00:38:49;101892.81;;;5.69;80.40
73101;BME280;61288;53.446;-2.266;2023-02-01T00:41:17;101889.38;;;5.70;80.63
73101;BME280;61288;53.446;-2.266;2023-02-01T00:43:44;101889.34;;;5.68;81.37
73101;BME280;61288;53.446;-2.266;2023-02-01T00:46:11;101888.50;;;5.66;82.82
73101;BME280;61288;53.446;-2.266;2023-02-01T00:48:37;101918.50;;;5.61;84.55
73101;BME280;61288;53.446;-2.266;2023-02-01T00:51:04;101903.94;;;5.49;87.65
73101;BME280;61288;53.446;-2.266;2023-02-01T00:53:31;101905.66;;;5.36;89.84
73101;BME280;61288;53.446;-2.266;2023-02-01T00:56:00;101909.94;;;5.28;90.74
73101;BME280;61288;53.446;-2.266;2023-02-01T00:58:26;101903.06;;;5.22;90.15
73101;BME280;61288;53.446;-2.266;2023-02-01T01:01:06;101901.34;;;5.18;91.21
73101;BME280;61288;53.446;-2.266;2023-02-01T01:03:34;101905.63;;;5.14;91.44
73101;BME280;61288;53.446;-2.266;2023-02-01T01:06:02;101895.31;;;5.11;91.44
73101;BME280;61288;53.446;-2.266;2023-02-01T01:08:31;101888.50;;;5.05;91.29
73101;BME280;61288;53.446;-2.266;2023-02-01T01:10:57;101881.63;;;5.03;91.34
73101;BME280;61288;53.446;-2.266;2023-02-01T01:13:25;101882.50;;;4.97;91.29
73101;BME280;61288;53.446;-2.266;2023-02-01T01:15:51;101886.75;;;4.97;91.44
73101;BME280;61288;53.446;-2.266;2023-02-01T01:18:16;101880.75;;;4.93;90.96
73101;BME280;61288;53.446;-2.266;2023-02-01T01:20:42;101894.44;;;4.95;90.86
73101;BME280;61288;53.446;-2.266;2023-02-01T01:23:08;101875.63;;;4.98;90.30
73101;BME280;61288;53.446;-2.266;2023-02-01T01:25:38;101881.63;;;5.00;90.30
73101;BME280;61288;53.446;-2.266;2023-02-01T01:28:04;101885.91;;;5.02;90.47
73101;BME280;61288;53.446;-2.266;2023-02-01T01:30:31;101897.03;;;5.03;89.96
73101;BME280;61288;53.446;-2.266;2023-02-01T01:32:56;101892.75;;;5.08;89.63
73101;BME280;61288;53.446;-2.266;2023-02-01T01:35:21;101892.75;;;5.08;90.32
73101;BME280;61288;53.446;-2.266;2023-02-01T01:37:47;101885.06;;;5.06;90.49
73101;BME280;61288;53.446;-2.266;2023-02-01T01:40:13;101886.75;;;5.09;89.58
73101;BME280;61288;53.446;-2.266;2023-02-01T01:42:40;101889.34;;;5.14;89.17
73101;BME280;61288;53.446;-2.266;2023-02-01T01:45:28;101891.03;;;5.13;89.35
73101;BME280;61288;53.446;-2.266;2023-02-01T01:51:03;101901.34;;;5.09;88.81
73101;BME280;61288;53.446;-2.266;2023-02-01T01:53:43;101894.47;;;5.12;88.27
73101;BME280;61288;53.446;-2.266;2023-02-01T01:56:11;101894.50;;;5.14;88.06
73101;BME280;61288;53.446;-2.266;2023-02-01T01:58:37;101892.78;;;5.13;88.42
73101;BME280;61288;53.446;-2.266;2023-02-01T02:01:03;101893.63;;;5.13;88.71
73101;BME280;61288;53.446;-2.266;2023-02-01T02:03:39;101885.06;;;5.16;87.60
73101;BME280;61288;53.446;-2.266;2023-02-01T02:06:26;101886.78;;;5.15;88.24
73101;BME280;61288;53.446;-2.266;2023-02-01T02:08:53;101887.63;;;5.16;87.75
73101;BME280;61288;53.446;-2.266;2023-02-01T02:11:19;101892.78;;;5.17;87.93
73101;BME280;61288;53.446;-2.266;2023-02-01T02:13:52;101888.50;;;5.18;87.91
73101;BME280;61288;53.446;-2.266;2023-02-01T02:16:44;101881.66;;;5.18;87.63
73101;BME280;61288;53.446;-2.266;2023-02-01T02:47:36;101898.81;;;5.33;88.56
73101;BME280;61288;53.446;-2.266;2023-02-01T02:56:03;101883.34;;;5.04;91.90
73101;BME280;61288;53.446;-2.266;2023-02-01T02:58:51;101875.63;;;5.01;91.44
73101;BME280;61288;53.446;-2.266;2023-02-01T03:01:37;101885.06;;;5.06;90.70
73101;BME280;61288;53.446;-2.266;2023-02-01T03:04:22;101882.50;;;5.03;91.22
73101;BME280;61288;53.446;-2.266;2023-02-01T03:06:49;101877.34;;;5.00;90.79
73101;BME280;61288;53.446;-2.266;2023-02-01T03:09:30;101876.47;;;5.00;89.87
73101;BME280;61288;53.446;-2.266;2023-02-01T03:12:03;101859.38;;;5.00;89.04
73101;BME280;61288;53.446;-2.266;2023-02-01T03:14:54;101863.66;;;5.01;89.11
73101;BME280;61288;53.446;-2.266;2023-02-01T03:17:29;101863.63;;;5.06;88.62
73101;BME280;61288;53.446;-2.266;2023-02-01T03:20:01;101846.53;;;5.06;88.85
73101;BME280;61288;53.446;-2.266;2023-02-01T03:22:29;101845.66;;;5.14;87.70
73101;BME280;61288;53.446;-2.266;2023-02-01T03:25:03;101849.13;;;5.14;88.01
73101;BME280;61288;53.446;-2.266;2023-02-01T03:27:36;101859.38;;;5.17;87.85
73101;BME280;61288;53.446;-2.266;2023-02-01T03:32:48;101840.53;;;5.22;87.42
73101;BME280;61288;53.446;-2.266;2023-02-01T03:35:41;101851.69;;;5.20;87.13
73101;BME280;61288;53.446;-2.266;2023-02-01T03:41:46;101830.25;;;5.22;86.64
73101;BME280;61288;53.446;-2.266;2023-02-01T03:47:08;101834.53;;;5.21;87.13
73101;BME280;61288;53.446;-2.266;2023-02-01T03:49:55;101820.00;;;5.18;87.13
73101;BME280;61288;53.446;-2.266;2023-02-01T03:52:28;101833.69;;;5.14;87.60
73101;BME280;61288;53.446;-2.266;2023-02-01T03:55:01;101822.53;;;5.09;87.37
73101;BME280;61288;53.446;-2.266;2023-02-01T03:57:32;101818.28;;;5.06;87.64
73101;BME280;61288;53.446;-2.266;2023-02-01T04:00:09;101818.25;;;4.99;87.80
73101;BME280;61288;53.446;-2.266;2023-02-01T04:02:36;101824.22;;;4.96;87.28
73101;BME280;61288;53.446;-2.266;2023-02-01T04:05:02;101825.09;;;4.94;87.40
73101;BME280;61288;53.446;-2.266;2023-02-01T04:07:28;101826.81;;;4.88;87.57
73101;BME280;61288;53.446;-2.266;2023-02-01T04:09:53;101817.41;;;4.90;86.98
73101;BME280;61288;53.446;-2.266;2023-02-01T04:12:18;101816.53;;;4.91;86.65
73101;BME280;61288;53.446;-2.266;2023-02-01T04:14:45;101812.25;;;4.89;86.73
73101;BME280;61288;53.446;-2.266;2023-02-01T04:17:11;101811.41;;;4.88;86.81
73101;BME280;61288;53.446;-2.266;2023-02-01T04:19:37;101821.66;;;4.93;86.28
73101;BME280;61288;53.446;-2.266;2023-02-01T04:22:03;101820.81;;;4.86;86.67
73101;BME280;61288;53.446;-2.266;2023-02-01T04:24:29;101817.38;;;4.89;86.69
73101;BME280;61288;53.446;-2.266;2023-02-01T04:26:54;101819.97;;;4.87;86.63
73101;BME280;61288;53.446;-2.266;2023-02-01T04:29:20;101823.38;;;4.88;86.58
73101;BME280;61288;53.446;-2.266;2023-02-01T04:31:45;101817.38;;;4.86;86.47
73101;BME280;61288;53.446;-2.266;2023-02-01T04:34:11;101822.53;;;4.87;85.94
73101;BME280;61288;53.446;-2.266;2023-02-01T04:36:38;101821.69;;;4.95;85.90
73101;BME280;61288;53.446;-2.266;2023-02-01T04:39:04;101825.97;;;4.96;85.56
73101;BME280;61288;53.446;-2.266;2023-02-01T04:41:30;101824.25;;;4.95;85.59
73101;BME280;61288;53.446;-2.266;2023-02-01T04:43:55;101804.56;;;4.94;85.50
73101;BME280;61288;53.446;-2.266;2023-02-01T04:46:22;101804.53;;;4.95;85.28
73101;BME280;61288;53.446;-2.266;2023-02-01T04:48:48;101801.13;;;4.98;85.08
73101;BME280;61288;53.446;-2.266;2023-02-01T04:51:13;101808.81;;;4.96;84.93
73101;BME280;61288;53.446;-2.266;2023-02-01T04:53:40;101807.13;;;5.00;84.86
73101;BME280;61288;53.446;-2.266;2023-02-01T04:56:07;101808.84;;;4.98;84.86
73101;BME280;61288;53.446;-2.266;2023-02-01T04:58:33;101819.09;;;4.96;85.28
73101;BME280;61288;53.446;-2.266;2023-02-01T05:00:58;101830.25;;;5.04;84.28
73101;BME280;61288;53.446;-2.266;2023-02-01T05:03:24;101823.41;;;5.14;83.54
73101;BME280;61288;53.446;-2.266;2023-02-01T05:05:49;101836.25;;;5.13;83.53
73101;BME280;61288;53.446;-2.266;2023-02-01T05:08:15;101834.53;;;5.13;83.45
73101;BME280;61288;53.446;-2.266;2023-02-01T05:10:41;101827.69;;;5.23;82.92
73101;BME280;61288;53.446;-2.266;2023-02-01T05:13:08;101840.53;;;5.25;82.89
73101;BME280;61288;53.446;-2.266;2023-02-01T05:15:54;101826.81;;;5.32;82.61
73101;BME280;61288;53.446;-2.266;2023-02-01T05:18:20;101830.25;;;5.26;82.92
73101;BME280;61288;53.446;-2.266;2023-02-01T05:20:45;101821.69;;;5.27;83.49
73101;BME280;61288;53.446;-2.266;2023-02-01T05:23:11;101831.13;;;5.27;83.51
73101;BME280;61288;53.446;-2.266;2023-02-01T05:25:36;101831.97;;;5.29;83.25
73101;BME280;61288;53.446;-2.266;2023-02-01T05:28:04;101835.41;;;5.35;82.74
73101;BME280;61288;53.446;-2.266;2023-02-01T05:36:05;101843.09;;;5.54;82.58
73101;BME280;61288;53.446;-2.266;2023-02-01T05:38:32;101832.81;;;5.59;82.52
73101;BME280;61288;53.446;-2.266;2023-02-01T05:40:58;101820.78;;;5.59;81.97
73101;BME280;61288;53.446;-2.266;2023-02-01T05:43:23;101820.78;;;5.72;81.83
73101;BME280;61288;53.446;-2.266;2023-02-01T05:45:49;101829.34;;;5.74;81.70
73101;BME280;61288;53.446;-2.266;2023-02-01T05:48:16;101823.34;;;5.73;81.86
73101;BME280;61288;53.446;-2.266;2023-02-01T05:50:43;101821.59;;;5.78;81.72
73101;BME280;61288;53.446;-2.266;2023-02-01T05:53:08;101825.91;;;5.78;81.99
73101;BME280;61288;53.446;-2.266;2023-02-01T05:55:34;101818.19;;;5.78;81.72
73101;BME280;61288;53.446;-2.266;2023-02-01T05:57:59;101812.19;;;5.74;82.28
73101;BME280;61288;53.446;-2.266;2023-02-01T06:00:25;101800.19;;;5.75;81.98
73101;BME280;61288;53.446;-2.266;2023-02-01T06:02:51;101815.63;;;5.78;82.12
73101;BME280;61288;53.446;-2.266;2023-02-01T06:05:16;101809.59;;;5.85;82.21
73101;BME280;61288;53.446;-2.266;2023-02-01T06:07:45;101795.84;;;5.92;81.36
73101;BME280;61288;53.446;-2.266;2023-02-01T06:10:10;101812.13;;;5.96;81.44
73101;BME280;61288;53.446;-2.266;2023-02-01T06:12:36;101795.84;;;5.94;81.48
73101;BME280;61288;53.446;-2.266;2023-02-01T06:15:02;101816.44;;;5.92;81.47
73101;BME280;61288;53.446;-2.266;2023-02-01T06:17:28;101818.13;;;5.98;81.52
73101;BME280;61288;53.446;-2.266;2023-02-01T06:19:53;101813.00;;;6.00;81.07
73101;BME280;61288;53.446;-2.266;2023-02-01T06:22:18;101815.59;;;6.01;81.90
73101;BME280;61288;53.446;-2.266;2023-02-01T06:24:44;101812.13;;;6.07;81.58
73101;BME280;61288;53.446;-2.266;2023-02-01T06:27:10;101801.84;;;6.02;82.08
73101;BME280;61288;53.446;-2.266;2023-02-01T06:29:36;101800.13;;;6.04;80.89
73101;BME280;61288;53.446;-2.266;2023-02-01T06:32:02;101818.16;;;6.03;82.02
73101;BME280;61288;53.446;-2.266;2023-02-01T06:34:28;101812.16;;;6.04;81.36
73101;BME280;61288;53.446;-2.266;2023-02-01T06:36:54;101802.69;;;6.07;81.00
73101;BME280;61288;53.446;-2.266;2023-02-01T06:39:20;101806.97;;;6.10;81.36
73101;BME280;61288;53.446;-2.266;2023-02-01T06:41:48;101824.13;;;6.14;80.54
73101;BME280;61288;53.446;-2.266;2023-02-01T06:44:14;101800.09;;;6.11;81.50
73101;BME280;61288;53.446;-2.266;2023-02-01T06:46:40;101817.28;;;6.10;81.35
73101;BME280;61288;53.446;-2.266;2023-02-01T06:49:05;101806.09;;;6.13;81.44
73101;BME280;61288;53.446;-2.266;2023-02-01T06:51:31;101810.38;;;6.18;81.07
73101;BME280;61288;53.446;-2.266;2023-02-01T06:53:57;101814.66;;;6.21;81.09
73101;BME280;61288;53.446;-2.266;2023-02-01T06:56:23;101807.78;;;6.21;80.74
73101;BME280;61288;53.446;-2.266;2023-02-01T06:58:49;101804.34;;;6.19;80.85
73101;BME280;61288;53.446;-2.266;2023-02-01T07:01:15;101808.63;;;6.25;80.64
73101;BME280;61288;53.446;-2.266;2023-02-01T07:03:41;101798.31;;;6.24;80.71
73101;BME280;61288;53.446;-2.266;2023-02-01T07:06:07;101788.88;;;6.30;80.14
73101;BME280;61288;53.446;-2.266;2023-02-01T07:08:35;101808.63;;;6.30;80.45
73101;BME280;61288;53.446;-2.266;2023-02-01T07:11:09;101818.91;;;6.30;80.22
73101;BME280;61288;53.446;-2.266;2023-02-01T07:13:36;101813.78;;;6.30;80.84
73101;BME280;61288;53.446;-2.266;2023-02-01T07:16:04;101811.16;;;6.31;80.71
73101;BME280;61288;53.446;-2.266;2023-02-01T07:18:31;101820.59;;;6.32;80.52
73101;BME280;61288;53.446;-2.266;2023-02-01T07:20:58;101799.97;;;6.39;79.96
73101;BME280;61288;53.446;-2.266;2023-02-01T07:23:24;101811.13;;;6.38;80.67
73101;BME280;61288;53.446;-2.266;2023-02-01T07:25:55;101808.59;;;6.33;80.79
73101;BME280;61288;53.446;-2.266;2023-02-01T07:28:22;101820.63;;;6.29;81.37
73101;BME280;61288;53.446;-2.266;2023-02-01T07:30:48;101817.19;;;6.26;81.37
73101;BME280;61288;53.446;-2.266;2023-02-01T07:33:23;101826.66;;;6.25;81.80
73101;BME280;61288;53.446;-2.266;2023-02-01T07:35:50;101835.19;;;6.29;81.13
73101;BME280;61288;53.446;-2.266;2023-02-01T07:38:17;101830.91;;;6.29;81.35
73101;BME280;61288;53.446;-2.266;2023-02-01T07:40:42;101822.34;;;6.27;81.45
73101;BME280;61288;53.446;-2.266;2023-02-01T07:43:08;101824.88;;;6.33;80.81
73101;BME280;61288;53.446;-2.266;2023-02-01T07:45:35;101824.91;;;6.32;81.05
73101;BME280;61288;53.446;-2.266;2023-02-01T07:48:01;101842.06;;;6.33;81.34
73101;BME280;61288;53.446;-2.266;2023-02-01T07:50:27;101824.03;;;6.36;80.81
73101;BME280;61288;53.446;-2.266;2023-02-01T07:52:53;101832.63;;;6.33;81.07
73101;BME280;61288;53.446;-2.266;2023-02-01T07:55:19;101823.19;;;6.32;81.44
73101;BME280;61288;53.446;-2.266;2023-02-01T07:57:45;101848.06;;;6.33;81.70
73101;BME280;61288;53.446;-2.266;2023-02-01T08:00:11;101821.47;;;6.31;82.00
73101;BME280;61288;53.446;-2.266;2023-02-01T08:02:59;101834.31;;;6.34;81.79
73101;BME280;61288;53.446;-2.266;2023-02-01T08:05:25;101841.19;;;6.35;81.17
73101;BME280;61288;53.446;-2.266;2023-02-01T08:07:50;101840.34;;;6.35;81.43
73101;BME280;61288;53.446;-2.266;2023-02-01T08:10:17;101836.91;;;6.34;81.81
73101;BME280;61288;53.446;-2.266;2023-02-01T08:12:43;101838.66;;;6.31;82.25
73101;BME280;61288;53.446;-2.266;2023-02-01T08:15:14;101841.19;;;6.37;81.31
73101;BME280;61288;53.446;-2.266;2023-02-01T08:17:45;101840.31;;;6.38;81.07
73101;BME280;61288;53.446;-2.266;2023-02-01T08:20:11;101863.47;;;6.44;80.50
73101;BME280;61288;53.446;-2.266;2023-02-01T08:22:38;101854.03;;;6.43;80.80
73101;BME280;61288;53.446;-2.266;2023-02-01T08:25:04;101848.00;;;6.44;80.96
73101;BME280;61288;53.446;-2.266;2023-02-01T08:27:32;101850.59;;;6.40;81.52
73101;BME280;61288;53.446;-2.266;2023-02-01T08:29:58;101839.44;;;6.42;80.90
73101;BME280;61288;53.446;-2.266;2023-02-01T08:32:25;101840.25;;;6.46;80.85
73101;BME280;61288;53.446;-2.266;2023-02-01T08:34:50;101847.16;;;6.45;81.57
73101;BME280;61288;53.446;-2.266;2023-02-01T08:37:15;101843.72;;;6.48;80.91
73101;BME280;61288;53.446;-2.266;2023-02-01T08:39:41;101837.69;;;6.46;81.06
73101;BME280;61288;53.446;-2.266;2023-02-01T08:42:08;101848.00;;;6.46;81.34
73101;BME280;61288;53.446;-2.266;2023-02-01T08:44:53;101846.28;;;6.46;81.27
73101;BME280;61288;53.446;-2.266;2023-02-01T08:47:18;101848.84;;;6.49;81.58
73101;BME280;61288;53.446;-2.266;2023-02-01T08:49:44;101845.44;;;6.49;81.32
73101;BME280;61288;53.446;-2.266;2023-02-01T08:52:09;101828.28;;;6.48;82.10
73101;BME280;61288;53.446;-2.266;2023-02-01T08:54:35;101836.00;;;6.48;81.76
73101;BME280;61288;53.446;-2.266;2023-02-01T08:57:01;101829.97;;;6.46;81.91
73101;BME280;61288;53.446;-2.266;2023-02-01T08:59:28;101836.81;;;6.53;81.22
73101;BME280;61288;53.446;-2.266;2023-02-01T09:01:53;101825.69;;;6.51;81.97
73101;BME280;61288;53.446;-2.266;2023-02-01T09:04:19;101818.81;;;6.48;82.04
73101;BME280;61288;53.446;-2.266;2023-02-01T09:06:45;101835.97;;;6.49;82.33
73101;BME280;61288;53.446;-2.266;2023-02-01T09:09:10;101833.34;;;6.56;81.47
73101;BME280;61288;53.446;-2.266;2023-02-01T09:11:36;101835.06;;;6.58;81.57
73101;BME280;61288;53.446;-2.266;2023-02-01T09:14:02;101821.34;;;6.56;81.94
73101;BME280;61288;53.446;-2.266;2023-02-01T09:16:28;101829.91;;;6.58;81.81
73101;BME280;61288;53.446;-2.266;2023-02-01T09:18:53;101820.47;;;6.59;81.79
73101;BME280;61288;53.446;-2.266;2023-02-01T09:21:20;101824.72;;;6.64;81.67
73101;BME280;61288;53.446;-2.266;2023-02-01T09:23:46;101839.31;;;6.65;81.62
73101;BME280;61288;53.446;-2.266;2023-02-01T09:26:15;101847.03;;;6.70;81.13
73101;BME280;61288;53.446;-2.266;2023-02-01T09:28:41;101822.13;;;6.72;81.40
73101;BME280;61288;53.446;-2.266;2023-02-01T09:31:06;101834.06;;;6.78;80.87
73101;BME280;61288;53.446;-2.266;2023-02-01T09:33:32;101828.06;;;6.79;81.45
73101;BME280;61288;53.446;-2.266;2023-02-01T09:36:03;101836.66;;;6.78;81.60
73101;BME280;61288;53.446;-2.266;2023-02-01T09:38:30;101840.09;;;6.77;81.94
73101;BME280;61288;53.446;-2.266;2023-02-01T09:40:56;101840.09;;;6.80;81.02
73101;BME280;61288;53.446;-2.266;2023-02-01T09:46:30;101838.31;;;6.87;81.04
73101;BME280;61288;53.446;-2.266;2023-02-01T09:49:02;101828.00;;;6.90;80.95
73101;BME280;61288;53.446;-2.266;2023-02-01T09:51:38;101839.97;;;6.94;81.18
73101;BME280;61288;53.446;-2.266;2023-02-01T09:54:13;101846.84;;;6.97;81.53
73101;BME280;61288;53.446;-2.266;2023-02-01T09:57:14;101842.53;;;7.00;81.60
73101;BME280;61288;53.446;-2.266;2023-02-01T09:59:43;101849.38;;;7.04;81.20
73101;BME280;61288;53.446;-2.266;2023-02-01T10:02:19;101843.34;;;7.07;81.10
73101;BME280;61288;53.446;-2.266;2023-02-01T10:04:48;101847.63;;;7.08;81.32
73101;BME280;61288;53.446;-2.266;2023-02-01T10:10:21;101849.28;;;7.18;80.85
73101;BME280;61288;53.446;-2.266;2023-02-01T10:13:12;101853.50;;;7.24;80.41
73101;BME280;61288;53.446;-2.266;2023-02-01T10:18:57;101857.78;;;7.28;80.22
73101;BME280;61288;53.446;-2.266;2023-02-01T10:26:25;101862.16;;;7.21;81.19
73101;BME280;61288;53.446;-2.266;2023-02-01T10:28:55;101862.16;;;7.18;81.09
73101;BME280;61288;53.446;-2.266;2023-02-01T10:31:25;101855.31;;;7.16;81.78
73101;BME280;61288;53.446;-2.266;2023-02-01T10:33:58;101859.63;;;7.15;82.81
73101;BME280;61288;53.446;-2.266;2023-02-01T10:36:56;101871.69;;;7.08;83.91
73101;BME280;61288;53.446;-2.266;2023-02-01T10:39:25;101870.03;;;7.00;85.64
73101;BME280;61288;53.446;-2.266;2023-02-01T10:41:50;101858.88;;;6.93;85.71
73101;BME280;61288;53.446;-2.266;2023-02-01T10:44:23;101868.34;;;6.91;85.94
73101;BME280;61288;53.446;-2.266;2023-02-01T10:46:50;101870.09;;;6.89;85.93
73101;BME280;61288;53.446;-2.266;2023-02-01T10:49:23;101871.81;;;6.87;86.63
73101;BME280;61288;53.446;-2.266;2023-02-01T10:51:57;101889.00;;;6.86;86.51
73101;BME280;61288;53.446;-2.266;2023-02-01T10:54:36;101882.13;;;6.87;86.22
73101;BME280;61288;53.446;-2.266;2023-02-01T10:57:10;101874.41;;;6.85;86.34
73101;BME280;61288;53.446;-2.266;2023-02-01T10:59:47;101882.13;;;6.87;86.38
73101;BME280;61288;53.446;-2.266;2023-02-01T11:02:30;101876.94;;;6.94;85.84
73101;BME280;61288;53.446;-2.266;2023-02-01T11:05:11;101874.31;;;7.01;85.37
73101;BME280;61288;53.446;-2.266;2023-02-01T11:07:39;101882.91;;;7.01;86.16
73101;BME280;61288;53.446;-2.266;2023-02-01T11:10:35;101877.78;;;6.98;85.90
73101;BME280;61288;53.446;-2.266;2023-02-01T11:13:03;101878.66;;;6.97;86.89
73101;BME280;61288;53.446;-2.266;2023-02-01T11:15:29;101872.63;;;6.97;86.82
73101;BME280;61288;53.446;-2.266;2023-02-01T11:17:54;101873.47;;;7.00;86.34
73101;BME280;61288;53.446;-2.266;2023-02-01T11:20:41;101878.56;;;7.06;86.38
73101;BME280;61288;53.446;-2.266;2023-02-01T11:23:18;101874.19;;;7.18;86.59
73101;BME280;61288;53.446;-2.266;2023-02-01T11:25:55;101872.41;;;7.26;86.83
73101;BME280;61288;53.446;-2.266;2023-02-01T11:28:29;101873.19;;;7.36;86.23
73101;BME280;61288;53.446;-2.266;2023-02-01T11:30:57;101877.41;;;7.43;86.04
73101;BME280;61288;53.446;-2.266;2023-02-01T11:33:28;101874.00;;;7.43;86.37
73101;BME280;61288;53.446;-2.266;2023-02-01T11:35:58;101865.41;;;7.44;85.51
73101;BME280;61288;53.446;-2.266;2023-02-01T11:38:28;101874.91;;;7.37;85.77
73101;BME280;61288;53.446;-2.266;2023-02-01T11:40:55;101882.69;;;7.32;86.25
73101;BME280;61288;53.446;-2.266;2023-02-01T11:43:36;101895.56;;;7.34;86.51
73101;BME280;61288;53.446;-2.266;2023-02-01T11:46:16;101877.56;;;7.29;86.64
73101;BME280;61288;53.446;-2.266;2023-02-01T11:48:42;101885.31;;;7.25;86.90
73101;BME280;61288;53.446;-2.266;2023-02-01T11:59:22;101879.34;;;7.19;86.55
73101;BME280;61288;53.446;-2.266;2023-02-01T12:10:18;101875.09;;;7.11;88.48
73101;BME280;61288;53.446;-2.266;2023-02-01T12:15:48;101880.22;;;7.17;90.87
73101;BME280;61288;53.446;-2.266;2023-02-01T12:31:50;101863.22;;;6.88;91.68
73101;BME280;61288;53.446;-2.266;2023-02-01T12:34:52;101858.06;;;6.88;91.24
73101;BME280;61288;53.446;-2.266;2023-02-01T12:43:01;101856.31;;;6.96;89.70
73101;BME280;61288;53.446;-2.266;2023-02-01T12:48:01;101850.28;;;6.99;90.18
73101;BME280;61288;53.446;-2.266;2023-02-01T12:50:36;101855.38;;;7.05;89.95
73101;BME280;61288;53.446;-2.266;2023-02-01T12:53:33;101849.34;;;7.06;89.67
73101;BME280;61288;53.446;-2.266;2023-02-01T12:56:07;101857.97;;;7.06;89.63
73101;BME280;61288;53.446;-2.266;2023-02-01T12:58:52;101852.75;;;7.13;89.27
73101;BME280;61288;53.446;-2.266;2023-02-01T13:04:26;101847.50;;;7.27;88.38
73101;BME280;61288;53.446;-2.266;2023-02-01T13:07:09;101853.47;;;7.27;88.44
73101;BME280;61288;53.446;-2.266;2023-02-01T13:09:41;101852.63;;;7.31;88.49
73101;BME280;61288;53.446;-2.266;2023-02-01T13:12:40;101837.09;;;7.36;87.95
73101;BME280;61288;53.446;-2.266;2023-02-01T13:15:19;101851.66;;;7.40;87.54
73101;BME280;61288;53.446;-2.266;2023-02-01T13:17:49;101865.38;;;7.47;87.73
73101;BME280;61288;53.446;-2.266;2023-02-01T13:20:32;101861.09;;;7.41;89.24
73101;BME280;61288;53.446;-2.266;2023-02-01T13:23:04;101854.28;;;7.39;90.87
73101;BME280;61288;53.446;-2.266;2023-02-01T13:25:59;101850.75;;;7.44;90.27
73101;BME280;61288;53.446;-2.266;2023-02-01T13:28:44;101849.88;;;7.50;89.51
73101;BME280;61288;53.446;-2.266;2023-02-01T13:34:31;101827.38;;;7.61;88.61
73101;BME280;61288;53.446;-2.266;2023-02-01T13:42:23;101848.03;;;7.63;88.68
73101;BME280;61288;53.446;-2.266;2023-02-01T13:44:55;101860.94;;;7.58;88.30
73101;BME280;61288;53.446;-2.266;2023-02-01T13:47:31;101850.63;;;7.58;88.67
73101;BME280;61288;53.446;-2.266;2023-02-01T13:50:12;101843.81;;;7.54;88.71
73101;BME280;61288;53.446;-2.266;2023-02-01T13:55:24;101845.63;;;7.41;89.03
73101;BME280;61288;53.446;-2.266;2023-02-01T13:58:02;101844.81;;;7.37;89.41
73101;BME280;61288;53.446;-2.266;2023-02-01T14:00:32;101846.56;;;7.34;89.57
73101;BME280;61288;53.446;-2.266;2023-02-01T14:10:59;101861.22;;;7.29;90.42
73101;BME280;61288;53.446;-2.266;2023-02-01T14:13:41;101854.34;;;7.28;90.15
73101;BME280;61288;53.446;-2.266;2023-02-01T14:16:15;101862.09;;;7.28;89.90
73101;BME280;61288;53.446;-2.266;2023-02-01T14:23:45;101857.78;;;7.28;88.58
73101;BME280;61288;53.446;-2.266;2023-02-01T14:26:15;101852.63;;;7.30;88.36
73101;BME280;61288;53.446;-2.266;2023-02-01T14:28:49;101864.63;;;7.31;88.35
73101;BME280;61288;53.446;-2.266;2023-02-01T14:31:35;101874.94;;;7.31;88.70
73101;BME280;61288;53.446;-2.266;2023-02-01T14:50:21;101877.47;;;7.37;86.29
73101;BME280;61288;53.446;-2.266;2023-02-01T15:00:58;101889.47;;;7.41;86.15
73101;BME280;61288;53.446;-2.266;2023-02-01T15:06:48;101901.47;;;7.47;85.63
73101;BME280;61288;53.446;-2.266;2023-02-01T15:09:31;101903.16;;;7.51;85.64
73101;BME280;61288;53.446;-2.266;2023-02-01T15:14:34;101928.06;;;7.57;84.86
73101;BME280;61288;53.446;-2.266;2023-02-01T15:17:00;101919.44;;;7.56;85.13
73101;BME280;61288;53.446;-2.266;2023-02-01T15:19:27;101911.69;;;7.58;84.64
73101;BME280;61288;53.446;-2.266;2023-02-01T15:21:55;101929.75;;;7.58;84.51
73101;BME280;61288;53.446;-2.266;2023-02-01T15:24:27;101926.31;;;7.59;84.07
73101;BME280;61288;53.446;-2.266;2023-02-01T15:26:54;101937.47;;;7.59;84.56
73101;BME280;61288;53.446;-2.266;2023-02-01T15:29:22;101934.91;;;7.56;84.97
73101;BME280;61288;53.446;-2.266;2023-02-01T15:31:52;101933.22;;;7.57;84.43
73101;BME280;61288;53.446;-2.266;2023-02-01T15:34:19;101945.22;;;7.56;84.61
73101;BME280;61288;53.446;-2.266;2023-02-01T15:36:47;101932.34;;;7.58;83.97
73101;BME280;61288;53.446;-2.266;2023-02-01T15:44:41;101925.41;;;7.61;83.48
73101;BME280;61288;53.446;-2.266;2023-02-01T15:47:17;101935.72;;;7.64;83.23
73101;BME280;61288;53.446;-2.266;2023-02-01T15:49:46;101928.00;;;7.63;83.43
73101;BME280;61288;53.446;-2.266;2023-02-01T15:55:06;101922.00;;;7.59;83.71
73101;BME280;61288;53.446;-2.266;2023-02-01T15:57:36;101935.75;;;7.58;84.40
73101;BME280;61288;53.446;-2.266;2023-02-01T16:00:06;101929.75;;;7.56;84.44